createdAt,value
2019-02-19T00:02:25.757Z,98505.73
2019-02-19T00:04:58.140Z,98511.81
2019-02-19T00:07:30.551Z,98513.05
2019-02-19T00:10:02.914Z,98515.67
2019-02-19T00:12:35.903Z,98507.87
2019-02-19T00:15:08.872Z,98513.98
2019-02-19T00:17:41.304Z,98513.28
2019-02-19T00:20:13.828Z,98515.89
2019-02-19T00:22:46.333Z,98512.20
2019-02-19T00:25:19.092Z,98512.95
2019-02-19T00:27:51.470Z,98511.83
2019-02-19T00:30:23.958Z,98511.66
2019-02-19T00:32:56.814Z,98509.83
2019-02-19T00:35:29.224Z,98514.81
2019-02-19T00:38:01.733Z,98508.75
2019-02-19T00:40:34.194Z,98515.11
2019-02-19T00:43:06.725Z,98515.11
2019-02-19T00:45:39.110Z,98514.41
2019-02-19T00:48:11.254Z,98515.33
2019-02-19T00:50:43.681Z,98524.15
2019-02-19T00:53:16.100Z,98515.89
2019-02-19T00:55:48.471Z,98527.61
2019-02-19T00:58:21.126Z,98534.58
2019-02-19T01:00:53.915Z,98532.19
2019-02-19T01:03:26.842Z,98529.14
2019-02-19T01:05:59.237Z,98539.81
2019-02-19T01:08:32.670Z,98536.38
2019-02-19T01:11:14.239Z,98544.06
2019-02-19T01:13:46.552Z,98538.86
2019-02-19T01:16:19.394Z,98539.86
2019-02-19T01:18:51.869Z,98532.75
2019-02-19T01:21:24.285Z,98536.98
2019-02-19T01:23:59.119Z,98546.38
2019-02-19T01:26:31.279Z,98538.28
2019-02-19T01:29:04.537Z,98533.36
2019-02-19T01:31:35.551Z,98534.28
2019-02-19T01:34:08.018Z,98544.87
2019-02-19T01:36:40.991Z,98528.95
2019-02-19T01:39:14.142Z,98519.88
2019-02-19T01:41:46.552Z,98526.30
2019-02-19T01:44:19.617Z,98522.53
2019-02-19T01:46:51.931Z,98519.45
2019-02-19T01:49:24.302Z,98518.56
2019-02-19T01:51:56.701Z,98519.42
2019-02-19T01:54:30.046Z,98518.94
2019-02-19T01:57:01.257Z,98510.83
2019-02-19T01:59:35.419Z,98516.79
2019-02-19T02:02:07.534Z,98511.28
2019-02-19T02:04:41.248Z,98510.37
2019-02-19T02:07:13.596Z,98508.68
2019-02-19T02:09:46.016Z,98507.69
2019-02-19T02:12:18.779Z,98504.09
2019-02-19T02:14:51.310Z,98504.28
2019-02-19T02:17:23.493Z,98503.35
2019-02-19T02:19:57.692Z,98509.04
2019-02-19T02:22:32.645Z,98509.41
2019-02-19T02:25:04.859Z,98504.19
2019-02-19T02:27:37.282Z,98507.69
2019-02-19T02:30:09.859Z,98504.31
2019-02-19T02:32:42.241Z,98503.91
2019-02-19T02:35:14.638Z,98500.94
2019-02-19T02:37:46.743Z,98502.20
2019-02-19T02:40:18.848Z,98497.06
2019-02-19T02:42:51.034Z,98502.97
2019-02-19T02:45:23.425Z,98495.23
2019-02-19T02:47:55.955Z,98501.72
2019-02-19T02:50:28.830Z,98493.61
2019-02-19T02:53:01.260Z,98488.80
2019-02-19T02:55:33.736Z,98492.89
2019-02-19T02:58:06.633Z,98494.98
2019-02-19T03:00:38.988Z,98491.64
2019-02-19T03:03:11.200Z,98493.17
2019-02-19T03:06:12.952Z,98495.42
2019-02-19T03:08:45.044Z,98490.72
2019-02-19T03:11:17.576Z,98493.28
2019-02-19T03:13:50.320Z,98490.20
2019-02-19T03:16:22.955Z,98490.13
2019-02-19T03:18:55.423Z,98493.98
2019-02-19T03:21:27.787Z,98494.77
2019-02-19T03:24:00.326Z,98491.69
2019-02-19T03:26:32.747Z,98496.11
2019-02-19T03:29:05.164Z,98498.44
2019-02-19T03:31:37.514Z,98499.87
2019-02-19T03:34:09.897Z,98505.95
2019-02-19T03:36:42.053Z,98505.22
2019-02-19T03:39:14.569Z,98503.45
2019-02-19T03:41:46.927Z,98505.43
2019-02-19T03:44:19.032Z,98505.98
2019-02-19T03:46:51.103Z,98514.27
2019-02-19T03:49:23.196Z,98514.27
2019-02-19T03:51:55.639Z,98522.69
2019-02-19T03:54:28.756Z,98519.61
2019-02-19T03:57:01.284Z,98518.82
2019-02-19T03:59:33.873Z,98521.80
2019-02-19T04:02:06.442Z,98521.66
2019-02-19T04:04:38.818Z,98520.70
2019-02-19T04:07:10.970Z,98524.81
2019-02-19T04:09:43.068Z,98524.67
2019-02-19T04:12:15.519Z,98531.45
2019-02-19T04:14:47.936Z,98533.98
2019-02-19T04:17:20.283Z,98530.77
2019-02-19T04:19:52.703Z,98529.53
2019-02-19T04:22:25.173Z,98534.53
2019-02-19T04:24:57.574Z,98530.80
2019-02-19T04:27:30.041Z,98520.88
2019-02-19T04:30:02.465Z,98527.78
2019-02-19T04:32:34.804Z,98526.82
2019-02-19T04:35:07.267Z,98525.39
2019-02-19T04:37:39.633Z,98524.90
2019-02-19T04:40:12.001Z,98521.45
2019-02-19T04:42:44.347Z,98522.86
2019-02-19T04:45:16.456Z,98520.28
2019-02-19T04:47:48.896Z,98521.36
2019-02-19T04:50:21.275Z,98523.15
2019-02-19T04:52:54.197Z,98533.85
2019-02-19T04:55:26.567Z,98523.00
2019-02-19T04:57:58.966Z,98532.41
2019-02-19T05:00:31.347Z,98529.37
2019-02-19T05:03:03.689Z,98525.76
2019-02-19T05:05:36.400Z,98524.23
2019-02-19T05:08:09.591Z,98526.09
2019-02-19T05:10:42.372Z,98530.59
2019-02-19T05:13:14.736Z,98530.74
2019-02-19T05:15:46.943Z,98530.66
2019-02-19T05:18:19.319Z,98531.84
2019-02-19T05:20:51.469Z,98540.14
2019-02-19T05:23:24.032Z,98535.14
2019-02-19T05:25:57.299Z,98531.30
2019-02-19T05:28:28.280Z,98532.06
2019-02-19T05:31:00.449Z,98531.52
2019-02-19T05:33:32.793Z,98527.53
2019-02-19T05:36:04.988Z,98535.95
2019-02-19T05:38:37.372Z,98536.33
2019-02-19T05:41:10.267Z,98535.58
2019-02-19T05:43:42.614Z,98537.81
2019-02-19T05:46:14.712Z,98542.63
2019-02-19T05:48:47.255Z,98538.04
2019-02-19T05:51:20.319Z,98539.05
2019-02-19T05:53:52.611Z,98532.27
2019-02-19T05:56:25.175Z,98534.58
2019-02-19T05:59:16.662Z,98533.34
2019-02-19T06:01:48.811Z,98537.70
2019-02-19T06:04:21.222Z,98543.13
2019-02-19T06:06:53.629Z,98536.88
2019-02-19T06:09:26.063Z,98540.16
2019-02-19T06:11:58.633Z,98549.94
2019-02-19T06:14:30.974Z,98554.70
2019-02-19T06:17:03.225Z,98553.41
2019-02-19T06:19:35.622Z,98551.95
2019-02-19T06:22:07.749Z,98556.42
2019-02-19T06:24:40.119Z,98559.52
2019-02-19T06:27:12.205Z,98567.33
2019-02-19T06:29:44.555Z,98564.27
2019-02-19T06:32:16.681Z,98572.08
2019-02-19T06:34:49.429Z,98575.95
2019-02-19T06:37:21.531Z,98575.16
2019-02-19T06:39:54.314Z,98580.19
2019-02-19T06:42:27.031Z,98580.00
2019-02-19T06:44:59.456Z,98577.84
2019-02-19T06:47:31.839Z,98584.52
2019-02-19T06:50:03.929Z,98583.44
2019-02-19T06:52:36.572Z,98579.53
2019-02-19T06:55:09.284Z,98585.64
2019-02-19T06:57:41.624Z,98588.48
2019-02-19T07:00:14.115Z,98594.33
2019-02-19T07:03:00.859Z,98593.39
2019-02-19T07:05:32.969Z,98597.60
2019-02-19T07:08:05.398Z,98590.21
2019-02-19T07:10:37.835Z,98597.63
2019-02-19T07:13:10.247Z,98596.98
2019-02-19T07:15:43.046Z,98602.08
2019-02-19T07:18:15.482Z,98603.55
2019-02-19T07:20:48.044Z,98599.49
2019-02-19T07:23:20.425Z,98605.31
2019-02-19T07:25:52.987Z,98606.20
2019-02-19T07:28:25.387Z,98603.95
2019-02-19T07:30:57.807Z,98603.55
2019-02-19T07:33:30.319Z,98605.30
2019-02-19T07:36:02.766Z,98590.70
2019-02-19T07:38:35.132Z,98585.82
2019-02-19T07:41:07.253Z,98590.73
2019-02-19T07:43:39.761Z,98585.19
2019-02-19T07:46:12.253Z,98591.05
2019-02-19T07:48:44.656Z,98597.72
2019-02-19T07:51:16.994Z,98597.02
2019-02-19T07:53:49.826Z,98599.28
2019-02-19T07:56:22.182Z,98595.70
2019-02-19T07:58:54.359Z,98598.05
2019-02-19T08:01:26.691Z,98594.39
2019-02-19T08:03:58.802Z,98586.86
2019-02-19T08:06:31.140Z,98591.81
2019-02-19T08:09:04.779Z,98598.39
2019-02-19T08:11:37.242Z,98599.58
2019-02-19T08:14:09.605Z,98597.14
2019-02-19T08:16:42.078Z,98595.44
2019-02-19T08:19:14.797Z,98602.97
2019-02-19T08:21:47.193Z,98597.23
2019-02-19T08:24:19.368Z,98602.26
2019-02-19T08:26:51.458Z,98604.06
2019-02-19T08:29:24.281Z,98599.41
2019-02-19T08:31:56.643Z,98597.63
2019-02-19T08:34:28.754Z,98594.67
2019-02-19T08:37:01.276Z,98588.80
2019-02-19T08:39:33.630Z,98588.50
2019-02-19T08:42:05.707Z,98586.31
2019-02-19T08:44:38.143Z,98593.44
2019-02-19T08:47:10.566Z,98594.30
2019-02-19T08:49:42.711Z,98585.42
2019-02-19T08:52:15.132Z,98588.80
2019-02-19T08:54:47.647Z,98589.52
2019-02-19T08:57:20.022Z,98581.11
2019-02-19T08:59:52.121Z,98580.75
2019-02-19T09:02:24.247Z,98590.11
2019-02-19T09:04:56.412Z,98593.44
2019-02-19T09:07:28.676Z,98593.81
2019-02-19T09:10:01.398Z,98589.38
2019-02-19T09:12:33.745Z,98589.98
2019-02-19T09:15:06.644Z,98590.91
2019-02-19T09:17:38.710Z,98591.34
2019-02-19T09:20:11.822Z,98594.92
2019-02-19T09:22:44.168Z,98592.33
2019-02-19T09:25:16.317Z,98592.36
2019-02-19T09:27:48.537Z,98586.25
2019-02-19T09:30:21.175Z,98590.69
2019-02-19T09:32:53.532Z,98590.69
2019-02-19T09:35:25.648Z,98584.55
2019-02-19T09:37:58.099Z,98582.80
2019-02-19T09:40:30.530Z,98584.84
2019-02-19T09:43:02.928Z,98592.26
2019-02-19T09:45:35.391Z,98602.81
2019-02-19T09:48:08.070Z,98602.31
2019-02-19T09:50:40.488Z,98598.13
2019-02-19T09:53:12.845Z,98596.16
2019-02-19T09:55:44.949Z,98599.05
2019-02-19T09:58:17.067Z,98603.77
2019-02-19T10:00:49.374Z,98598.77
2019-02-19T10:03:21.960Z,98599.23
2019-02-19T10:05:54.312Z,98599.40
2019-02-19T10:08:26.966Z,98596.53
2019-02-19T10:10:59.509Z,98606.60
2019-02-19T10:13:32.229Z,98605.75
2019-02-19T10:16:04.605Z,98613.34
2019-02-19T10:18:37.135Z,98615.00
2019-02-19T10:21:09.805Z,98620.85
2019-02-19T10:23:42.279Z,98626.33
2019-02-19T10:26:14.763Z,98630.63
2019-02-19T10:28:47.534Z,98627.35
2019-02-19T10:31:19.891Z,98628.16
2019-02-19T10:33:52.233Z,98632.05
2019-02-19T10:36:24.591Z,98626.58
2019-02-19T10:38:56.822Z,98626.33
2019-02-19T10:41:29.214Z,98627.39
2019-02-19T10:44:01.594Z,98633.98
2019-02-19T10:46:33.998Z,98630.81
2019-02-19T10:49:06.351Z,98639.00
2019-02-19T10:51:38.442Z,98628.23
2019-02-19T10:54:10.508Z,98626.51
2019-02-19T10:56:42.601Z,98625.68
2019-02-19T10:59:14.699Z,98628.39
2019-02-19T11:01:46.763Z,98617.77
2019-02-19T11:04:19.403Z,98616.57
2019-02-19T11:06:51.594Z,98621.23
2019-02-19T11:09:24.046Z,98619.70
2019-02-19T11:11:58.130Z,98613.99
2019-02-19T11:14:31.463Z,98614.98
2019-02-19T11:17:03.825Z,98617.36
2019-02-19T11:19:36.213Z,98615.95
2019-02-19T11:22:08.570Z,98610.38
2019-02-19T11:24:40.940Z,98612.08
2019-02-19T11:27:13.343Z,98606.46
2019-02-19T11:29:45.724Z,98600.14
2019-02-19T11:32:17.778Z,98599.49
2019-02-19T11:34:50.352Z,98594.25
2019-02-19T11:37:22.691Z,98590.37
2019-02-19T11:39:55.487Z,98589.03
2019-02-19T11:42:28.144Z,98595.72
2019-02-19T11:45:01.028Z,98600.04
2019-02-19T11:47:33.478Z,98590.95
2019-02-19T11:50:06.106Z,98597.16
2019-02-19T11:52:38.450Z,98588.87
2019-02-19T11:55:12.673Z,98590.05
2019-02-19T11:57:45.670Z,98590.87
2019-02-19T12:00:21.225Z,98590.30
2019-02-19T12:02:54.237Z,98592.58
2019-02-19T12:05:26.601Z,98593.16
2019-02-19T12:07:58.708Z,98587.98
2019-02-19T12:10:30.806Z,98581.06
2019-02-19T12:13:03.242Z,98577.41
2019-02-19T12:15:35.704Z,98575.03
2019-02-19T12:18:08.071Z,98578.30
2019-02-19T12:20:40.155Z,98584.19
2019-02-19T12:23:12.391Z,98592.48
2019-02-19T12:25:44.766Z,98587.19
2019-02-19T12:28:17.177Z,98586.74
2019-02-19T12:30:49.818Z,98592.48
2019-02-19T12:33:22.259Z,98582.25
2019-02-19T12:35:54.730Z,98578.69
2019-02-19T12:38:27.119Z,98573.67
2019-02-19T12:40:59.954Z,98572.81
2019-02-19T12:43:32.867Z,98569.44
2019-02-19T12:46:05.317Z,98573.97
2019-02-19T12:48:37.658Z,98580.06
2019-02-19T12:51:09.930Z,98578.50
2019-02-19T12:53:42.403Z,98577.46
2019-02-19T12:56:15.195Z,98578.73
2019-02-19T12:58:47.870Z,98576.65
2019-02-19T13:01:20.245Z,98569.64
2019-02-19T13:03:52.626Z,98575.42
2019-02-19T13:06:25.319Z,98575.00
2019-02-19T13:08:57.826Z,98576.18
2019-02-19T13:11:30.187Z,98579.97
2019-02-19T13:14:02.723Z,98576.13
2019-02-19T13:16:35.111Z,98584.09
2019-02-19T13:19:07.465Z,98579.92
2019-02-19T13:21:39.850Z,98578.11
2019-02-19T13:24:12.222Z,98585.73
2019-02-19T13:26:44.907Z,98583.87
2019-02-19T13:29:17.413Z,98582.03
2019-02-19T13:31:49.812Z,98585.11
2019-02-19T13:34:21.886Z,98585.89
2019-02-19T13:36:54.032Z,98589.05
2019-02-19T13:39:26.203Z,98591.19
2019-02-19T13:41:59.380Z,98591.27
2019-02-19T13:44:30.743Z,98592.09
2019-02-19T13:47:03.282Z,98591.59
2019-02-19T13:49:36.150Z,98595.66
2019-02-19T13:52:22.409Z,98603.53
2019-02-19T13:54:54.296Z,98599.83
2019-02-19T13:57:27.082Z,98603.36
2019-02-19T13:59:59.868Z,98596.73
2019-02-19T14:02:32.416Z,98605.47
2019-02-19T14:05:04.787Z,98607.53
2019-02-19T14:07:37.576Z,98613.07
2019-02-19T14:10:09.949Z,98608.92
2019-02-19T14:12:42.036Z,98616.55
2019-02-19T14:15:25.958Z,98622.39
2019-02-19T14:17:59.534Z,98616.11
2019-02-19T14:20:50.284Z,98611.77
2019-02-19T14:23:40.484Z,98613.37
2019-02-19T14:26:34.755Z,98623.38
2019-02-19T14:29:29.027Z,98619.29
2019-02-19T14:32:23.354Z,98608.38
2019-02-19T14:35:21.170Z,98607.36
2019-02-19T14:38:15.475Z,98614.27
2019-02-19T14:41:05.659Z,98610.12
2019-02-19T14:44:13.259Z,98607.06
2019-02-19T14:47:03.697Z,98609.91
2019-02-19T14:49:48.361Z,98621.91
2019-02-19T14:52:55.316Z,98627.00
2019-02-19T14:56:00.347Z,98624.80
2019-02-19T14:58:52.804Z,98627.72
2019-02-19T15:01:47.422Z,98630.70
2019-02-19T15:04:38.921Z,98630.26
2019-02-19T15:07:30.433Z,98631.14
2019-02-19T15:10:24.748Z,98633.03
2019-02-19T15:13:13.672Z,98627.22
2019-02-19T15:16:05.292Z,98627.42
2019-02-19T15:19:06.059Z,98624.98
2019-02-19T15:21:50.498Z,98629.08
2019-02-19T15:24:48.121Z,98630.86
2019-02-19T15:27:48.897Z,98630.78
2019-02-19T15:30:42.995Z,98625.20
2019-02-19T15:33:40.810Z,98623.87
2019-02-19T15:36:41.589Z,98626.73
2019-02-19T15:39:42.687Z,98619.48
2019-02-19T15:42:39.682Z,98631.28
2019-02-19T15:45:31.224Z,98627.81
2019-02-19T15:48:12.026Z,98629.41
2019-02-19T15:51:02.608Z,98629.34
2019-02-19T15:54:09.566Z,98623.96
2019-02-19T15:57:13.318Z,98625.08
2019-02-19T16:00:16.563Z,98624.71
2019-02-19T16:03:03.543Z,98618.02
2019-02-19T16:05:59.559Z,98627.70
2019-02-19T16:08:41.408Z,98628.37
2019-02-19T16:11:31.820Z,98633.61
2019-02-19T16:14:24.309Z,98637.91
2019-02-19T16:17:28.229Z,98639.27
2019-02-19T16:20:19.513Z,98641.74
2019-02-19T16:23:17.613Z,98646.13
2019-02-19T16:26:12.171Z,98649.73
2019-02-19T16:29:02.671Z,98646.91
2019-02-19T16:31:57.919Z,98647.88
2019-02-19T16:34:38.495Z,98655.09
2019-02-19T16:37:19.661Z,98649.20
2019-02-19T16:40:03.247Z,98648.82
2019-02-19T16:42:53.044Z,98649.25
2019-02-19T16:45:42.666Z,98659.44
2019-02-19T16:48:25.254Z,98665.52
2019-02-19T16:51:08.200Z,98662.91
2019-02-19T16:53:50.702Z,98666.47
2019-02-19T16:56:51.050Z,98665.80
2019-02-19T16:59:33.033Z,98677.09
2019-02-19T17:02:13.835Z,98678.91
2019-02-19T17:05:19.730Z,98680.68
2019-02-19T17:08:16.662Z,98690.85
2019-02-19T17:10:59.068Z,98693.91
2019-02-19T17:13:57.874Z,98694.36
2019-02-19T17:16:42.006Z,98693.77
2019-02-19T17:19:32.333Z,98695.36
2019-02-19T17:22:33.151Z,98692.75
2019-02-19T17:25:28.200Z,98704.22
2019-02-19T17:28:22.592Z,98697.80
2019-02-19T17:31:21.230Z,98708.94
2019-02-19T17:34:06.828Z,98709.69
2019-02-19T17:36:58.634Z,98714.57
2019-02-19T17:39:53.228Z,98711.33
2019-02-19T17:42:40.482Z,98715.88
2019-02-19T17:45:31.971Z,98713.53
2019-02-19T17:48:38.595Z,98716.81
2019-02-19T17:51:32.976Z,98722.91
2019-02-19T17:54:28.158Z,98727.42
2019-02-19T17:57:09.656Z,98730.80
2019-02-19T18:00:01.357Z,98730.06
2019-02-19T18:03:09.393Z,98732.03
2019-02-19T18:05:54.975Z,98732.89
2019-02-19T18:08:33.595Z,98731.67
2019-02-19T18:11:44.571Z,98733.44
2019-02-19T18:14:43.208Z,98732.59
2019-02-19T18:17:36.695Z,98735.11
2019-02-19T18:20:09.468Z,98739.41
2019-02-19T18:22:42.193Z,98736.47
2019-02-19T18:25:15.737Z,98737.14
2019-02-19T18:27:48.977Z,98746.95
2019-02-19T18:30:21.359Z,98740.12
2019-02-19T18:32:54.013Z,98750.42
2019-02-19T18:35:27.951Z,98757.14
2019-02-19T18:38:01.726Z,98753.06
2019-02-19T18:40:34.453Z,98759.05
2019-02-19T18:43:06.659Z,98757.90
2019-02-19T18:45:41.449Z,98743.95
2019-02-19T18:48:14.412Z,98754.86
2019-02-19T18:50:46.939Z,98749.06
2019-02-19T18:53:19.296Z,98749.95
2019-02-19T18:55:51.418Z,98748.18
2019-02-19T18:58:23.588Z,98751.80
2019-02-19T19:00:57.711Z,98755.58
2019-02-19T19:03:30.711Z,98760.21
2019-02-19T19:06:03.630Z,98756.48
2019-02-19T19:08:35.984Z,98757.96
2019-02-19T19:11:08.090Z,98760.95
2019-02-19T19:13:40.169Z,98760.17
2019-02-19T19:16:13.679Z,98762.30
2019-02-19T19:18:47.417Z,98764.11
2019-02-19T19:21:20.791Z,98771.10
2019-02-19T19:23:53.712Z,98769.39
2019-02-19T19:26:25.846Z,98763.75
2019-02-19T19:28:59.235Z,98771.02
2019-02-19T19:31:34.095Z,98781.32
2019-02-19T19:34:06.239Z,98780.67
2019-02-19T19:36:38.431Z,98786.50
2019-02-19T19:39:10.821Z,98786.50
2019-02-19T19:41:43.174Z,98786.22
2019-02-19T19:44:15.269Z,98789.72
2019-02-19T19:46:47.402Z,98794.14
2019-02-19T19:49:19.567Z,98793.39
2019-02-19T19:51:52.029Z,98796.52
2019-02-19T19:54:24.987Z,98794.74
2019-02-19T19:56:58.527Z,98796.91
2019-02-19T19:59:30.823Z,98799.59
2019-02-19T20:02:05.320Z,98794.98
2019-02-19T20:04:40.164Z,98797.73
2019-02-19T20:07:13.375Z,98799.59
2019-02-19T20:09:46.337Z,98798.13
2019-02-19T20:12:18.486Z,98803.44
2019-02-19T20:14:52.985Z,98802.62
2019-02-19T20:17:26.661Z,98805.82
2019-02-19T20:19:59.817Z,98810.42
2019-02-19T20:22:34.172Z,98816.17
2019-02-19T20:25:07.033Z,98811.77
2019-02-19T20:27:41.758Z,98816.34
2019-02-19T20:30:13.986Z,98817.00
2019-02-19T20:32:46.808Z,98816.83
2019-02-19T20:35:19.203Z,98821.97
2019-02-19T20:37:54.103Z,98822.39
2019-02-19T20:40:25.200Z,98823.25
2019-02-19T20:42:58.737Z,98821.81
2019-02-19T20:45:31.269Z,98819.52
2019-02-19T20:48:04.091Z,98820.98
2019-02-19T20:50:37.400Z,98821.80
2019-02-19T20:53:10.587Z,98820.99
2019-02-19T20:55:44.565Z,98828.42
2019-02-19T20:58:17.319Z,98821.05
2019-02-19T21:00:50.700Z,98823.20
2019-02-19T21:03:21.757Z,98828.09
2019-02-19T21:05:54.230Z,98823.73
2019-02-19T21:08:27.003Z,98823.72
2019-02-19T21:10:59.524Z,98834.61
2019-02-19T21:13:32.107Z,98834.08
2019-02-19T21:16:04.601Z,98833.53
2019-02-19T21:18:37.121Z,98842.22
2019-02-19T21:21:09.857Z,98846.92
2019-02-19T21:23:43.609Z,98841.42
2019-02-19T21:26:16.715Z,98838.24
2019-02-19T21:28:49.486Z,98838.04
2019-02-19T21:31:22.334Z,98840.42
2019-02-19T21:33:56.584Z,98840.17
2019-02-19T21:36:29.149Z,98831.74
2019-02-19T21:39:02.504Z,98843.72
2019-02-19T21:41:33.638Z,98843.30
2019-02-19T21:44:06.719Z,98839.74
2019-02-19T21:46:41.240Z,98845.41
2019-02-19T21:49:13.614Z,98841.72
2019-02-19T21:51:54.018Z,98845.14
2019-02-19T21:54:22.111Z,98852.01
2019-02-19T21:56:54.943Z,98848.31
2019-02-19T21:59:27.400Z,98846.29
2019-02-19T22:01:59.814Z,98848.91
2019-02-19T22:04:35.066Z,98852.30
2019-02-19T22:07:10.027Z,98844.53
2019-02-19T22:09:42.457Z,98847.44
2019-02-19T22:12:15.331Z,98853.14
2019-02-19T22:14:48.821Z,98848.06
2019-02-19T22:17:21.111Z,98857.17
2019-02-19T22:20:02.713Z,98851.61
2019-02-19T22:22:32.875Z,98850.30
2019-02-19T22:25:05.539Z,98847.84
2019-02-19T22:27:39.405Z,98848.63
2019-02-19T22:30:14.109Z,98845.83
2019-02-19T22:32:49.327Z,98843.73
2019-02-19T22:35:21.474Z,98844.16
2019-02-19T22:37:53.950Z,98846.38
2019-02-19T22:40:26.367Z,98847.38
2019-02-19T22:42:58.811Z,98848.75
2019-02-19T22:45:31.398Z,98846.28
2019-02-19T22:48:05.919Z,98842.64
2019-02-19T22:50:38.771Z,98847.79
2019-02-19T22:53:29.057Z,98847.48
2019-02-19T22:56:14.915Z,98853.09
2019-02-19T22:58:49.885Z,98851.27
2019-02-19T23:01:35.618Z,98857.41
2019-02-19T23:04:07.745Z,98862.77
2019-02-19T23:06:40.690Z,98867.13
2019-02-19T23:09:13.340Z,98863.53
2019-02-19T23:11:46.552Z,98868.08
2019-02-19T23:14:21.445Z,98864.78
2019-02-19T23:16:53.541Z,98861.34
2019-02-19T23:19:25.751Z,98867.73
2019-02-19T23:21:59.577Z,98871.48
2019-02-19T23:24:33.797Z,98870.56
2019-02-19T23:27:06.293Z,98874.86
2019-02-19T23:29:37.795Z,98877.05
2019-02-19T23:32:09.799Z,98875.80
2019-02-19T23:34:43.134Z,98879.25
2019-02-19T23:37:31.700Z,98874.96
2019-02-19T23:40:04.136Z,98880.11
2019-02-19T23:42:36.493Z,98879.25
2019-02-19T23:45:10.093Z,98875.54
2019-02-19T23:47:44.906Z,98878.66
2019-02-19T23:50:19.406Z,98874.37
2019-02-19T23:52:52.622Z,98882.30
2019-02-19T23:55:25.817Z,98883.80
2019-02-19T23:57:57.917Z,98880.55
